Burgum, Netherlands
Current Conditions -  °F | °C
As of 9:25 PM on Wednesday 28 Jan 2015 (Local Time) from EHLW Reporting Station
Overcast Overcast  
Wind Chill: 31°   Ceiling: 5300
Heat Index: 41°   Visibility: 6mi
Dew Point: 32°   Wind: 23mph
Humidity: 70%   Direction: 270°W
Pressure: 29.23"   Gusts: NA
Location:  53.19°N, 5.99°E
Report Text: EHLW 282025Z AUTO 27020KT 9999 OVC053 05/00 Q0990 BLU 27019G30KT 9999 SCT050 TEMPO 29025G36KT 4500 SHRA SCT018CB BKN035
Loading
Personal Weather Stations






























Interactive Weather Map New forecast layout! Learn more

10-Day Weather Forecast

Advertisements
Track Severe Weather on mobile